sensor_id;sensor_type;location;lat;lon;timestamp;pressure;altitude;pressure_sealevel;temperature;humidity
73016;BME280;61893;50.074;14.440;2022-12-01T00:01:12;99255.88;;;2.53;84.15
73016;BME280;61893;50.074;14.440;2022-12-01T00:03:38;99263.06;;;2.50;84.45
73016;BME280;61893;50.074;14.440;2022-12-01T00:06:08;99259.50;;;2.51;84.57
73016;BME280;61893;50.074;14.440;2022-12-01T00:08:34;99262.06;;;2.52;84.29
73016;BME280;61893;50.074;14.440;2022-12-01T00:11:10;99260.78;;;2.59;84.00
73016;BME280;61893;50.074;14.440;2022-12-01T00:13:38;99257.31;;;2.59;84.09
73016;BME280;61893;50.074;14.440;2022-12-01T00:16:13;99261.78;;;2.57;83.98
73016;BME280;61893;50.074;14.440;2022-12-01T00:18:39;99263.06;;;2.65;83.96
73016;BME280;61893;50.074;14.440;2022-12-01T00:21:05;99253.25;;;2.69;83.82
73016;BME280;61893;50.074;14.440;2022-12-01T00:23:30;99248.31;;;2.63;84.40
73016;BME280;61893;50.074;14.440;2022-12-01T00:26:03;99254.91;;;2.54;83.80
73016;BME280;61893;50.074;14.440;2022-12-01T00:28:29;99250.63;;;2.53;84.46
73016;BME280;61893;50.074;14.440;2022-12-01T00:30:55;99248.16;;;2.50;84.16
73016;BME280;61893;50.074;14.440;2022-12-01T00:33:20;99244.84;;;2.46;84.55
73016;BME280;61893;50.074;14.440;2022-12-01T00:35:46;99251.22;;;2.58;84.25
73016;BME280;61893;50.074;14.440;2022-12-01T00:38:11;99252.81;;;2.61;84.25
73016;BME280;61893;50.074;14.440;2022-12-01T00:40:38;99254.56;;;2.60;83.84
73016;BME280;61893;50.074;14.440;2022-12-01T00:43:03;99254.75;;;2.57;84.05
73016;BME280;61893;50.074;14.440;2022-12-01T00:45:29;99255.09;;;2.51;84.25
73016;BME280;61893;50.074;14.440;2022-12-01T00:47:55;99253.91;;;2.57;84.64
73016;BME280;61893;50.074;14.440;2022-12-01T00:50:20;99247.66;;;2.43;84.34
73016;BME280;61893;50.074;14.440;2022-12-01T00:52:46;99246.78;;;2.43;84.68
73016;BME280;61893;50.074;14.440;2022-12-01T00:55:12;99256.88;;;2.51;84.44
73016;BME280;61893;50.074;14.440;2022-12-01T00:57:37;99246.03;;;2.41;85.28
73016;BME280;61893;50.074;14.440;2022-12-01T01:00:03;99250.50;;;2.39;85.06
73016;BME280;61893;50.074;14.440;2022-12-01T01:02:30;99256.72;;;2.38;85.18
73016;BME280;61893;50.074;14.440;2022-12-01T01:04:56;99254.56;;;2.29;85.02
73016;BME280;61893;50.074;14.440;2022-12-01T01:07:22;99263.78;;;2.20;85.63
73016;BME280;61893;50.074;14.440;2022-12-01T01:09:48;99262.59;;;2.10;86.41
73016;BME280;61893;50.074;14.440;2022-12-01T01:12:13;99253.88;;;2.09;86.07
73016;BME280;61893;50.074;14.440;2022-12-01T01:14:39;99255.09;;;2.02;86.53
73016;BME280;61893;50.074;14.440;2022-12-01T01:17:04;99246.72;;;1.95;86.93
73016;BME280;61893;50.074;14.440;2022-12-01T01:19:30;99252.72;;;1.97;87.20
73016;BME280;61893;50.074;14.440;2022-12-01T01:21:56;99253.03;;;1.91;87.76
73016;BME280;61893;50.074;14.440;2022-12-01T01:24:22;99257.13;;;1.97;87.32
73016;BME280;61893;50.074;14.440;2022-12-01T01:26:47;99244.72;;;2.00;86.67
73016;BME280;61893;50.074;14.440;2022-12-01T01:29:13;99243.44;;;2.08;86.99
73016;BME280;61893;50.074;14.440;2022-12-01T01:31:39;99247.34;;;2.16;86.97
73016;BME280;61893;50.074;14.440;2022-12-01T01:34:05;99245.34;;;2.21;86.02
73016;BME280;61893;50.074;14.440;2022-12-01T01:36:30;99237.63;;;2.18;86.21
73016;BME280;61893;50.074;14.440;2022-12-01T01:38:56;99243.53;;;2.22;86.07
73016;BME280;61893;50.074;14.440;2022-12-01T01:41:23;99244.38;;;2.22;86.22
73016;BME280;61893;50.074;14.440;2022-12-01T01:51:29;99247.84;;;2.07;86.28
73016;BME280;61893;50.074;14.440;2022-12-01T01:54:02;99249.94;;;2.00;86.02
73016;BME280;61893;50.074;14.440;2022-12-01T01:56:28;99256.53;;;1.92;86.62
73016;BME280;61893;50.074;14.440;2022-12-01T01:58:55;99250.06;;;1.82;86.88
73016;BME280;61893;50.074;14.440;2022-12-01T02:01:21;99255.16;;;1.85;86.93
73016;BME280;61893;50.074;14.440;2022-12-01T02:03:49;99252.75;;;1.80;86.94
73016;BME280;61893;50.074;14.440;2022-12-01T02:06:16;99247.78;;;1.91;86.89
73016;BME280;61893;50.074;14.440;2022-12-01T02:08:42;99246.88;;;1.92;86.66
73016;BME280;61893;50.074;14.440;2022-12-01T02:11:37;99248.56;;;1.93;87.15
73016;BME280;61893;50.074;14.440;2022-12-01T02:22:39;99243.59;;;2.05;86.20
73016;BME280;61893;50.074;14.440;2022-12-01T02:25:28;99239.19;;;2.05;86.33
73016;BME280;61893;50.074;14.440;2022-12-01T02:31:06;99239.41;;;1.85;87.13
73016;BME280;61893;50.074;14.440;2022-12-01T02:33:39;99242.34;;;1.78;87.22
73016;BME280;61893;50.074;14.440;2022-12-01T02:36:18;99238.34;;;1.71;87.61
73016;BME280;61893;50.074;14.440;2022-12-01T02:38:55;99237.31;;;1.74;87.74
73016;BME280;61893;50.074;14.440;2022-12-01T02:41:27;99231.56;;;1.67;87.66
73016;BME280;61893;50.074;14.440;2022-12-01T02:44:03;99235.72;;;1.54;88.22
73016;BME280;61893;50.074;14.440;2022-12-01T02:47:01;99238.44;;;1.52;87.73
73016;BME280;61893;50.074;14.440;2022-12-01T02:49:48;99237.75;;;1.49;88.46
73016;BME280;61893;50.074;14.440;2022-12-01T02:52:15;99230.34;;;1.40;88.56
73016;BME280;61893;50.074;14.440;2022-12-01T02:54:43;99239.19;;;1.37;88.98
73016;BME280;61893;50.074;14.440;2022-12-01T02:57:13;99229.81;;;1.33;88.70
73016;BME280;61893;50.074;14.440;2022-12-01T02:59:47;99227.66;;;1.24;89.10
73016;BME280;61893;50.074;14.440;2022-12-01T03:10:28;99231.50;;;1.17;90.23
73016;BME280;61893;50.074;14.440;2022-12-01T03:18:24;99224.31;;;1.20;89.85
73016;BME280;61893;50.074;14.440;2022-12-01T03:23:44;99232.28;;;1.19;90.07
73016;BME280;61893;50.074;14.440;2022-12-01T03:26:15;99228.56;;;1.23;89.92
73016;BME280;61893;50.074;14.440;2022-12-01T03:28:46;99226.56;;;1.28;89.61
73016;BME280;61893;50.074;14.440;2022-12-01T03:31:15;99223.56;;;1.35;89.38
73016;BME280;61893;50.074;14.440;2022-12-01T03:33:49;99224.25;;;1.39;88.80
73016;BME280;61893;50.074;14.440;2022-12-01T03:36:24;99220.47;;;1.27;89.71
73016;BME280;61893;50.074;14.440;2022-12-01T03:38:56;99216.47;;;1.38;89.46
73016;BME280;61893;50.074;14.440;2022-12-01T03:41:46;99227.19;;;1.33;89.48
73016;BME280;61893;50.074;14.440;2022-12-01T03:44:20;99226.97;;;1.38;89.52
73016;BME280;61893;50.074;14.440;2022-12-01T03:46:55;99224.03;;;1.26;89.75
73016;BME280;61893;50.074;14.440;2022-12-01T03:49:42;99218.16;;;1.39;89.37
73016;BME280;61893;50.074;14.440;2022-12-01T03:52:50;99220.25;;;1.32;89.02
73016;BME280;61893;50.074;14.440;2022-12-01T03:55:23;99231.44;;;1.35;89.27
73016;BME280;61893;50.074;14.440;2022-12-01T04:00:22;99232.44;;;1.50;89.28
73016;BME280;61893;50.074;14.440;2022-12-01T04:02:55;99227.88;;;1.54;88.38
73016;BME280;61893;50.074;14.440;2022-12-01T04:05:25;99235.28;;;1.46;88.51
73016;BME280;61893;50.074;14.440;2022-12-01T04:07:51;99235.88;;;1.51;88.10
73016;BME280;61893;50.074;14.440;2022-12-01T04:10:17;99228.97;;;1.50;89.16
73016;BME280;61893;50.074;14.440;2022-12-01T04:12:43;99228.88;;;1.51;89.08
73016;BME280;61893;50.074;14.440;2022-12-01T04:15:11;99223.34;;;1.57;88.40
73016;BME280;61893;50.074;14.440;2022-12-01T04:17:46;99223.47;;;1.54;87.94
73016;BME280;61893;50.074;14.440;2022-12-01T04:20:14;99229.50;;;1.39;88.42
73016;BME280;61893;50.074;14.440;2022-12-01T04:22:40;99233.53;;;1.29;89.35
73016;BME280;61893;50.074;14.440;2022-12-01T04:25:09;99237.53;;;1.19;89.50
73016;BME280;61893;50.074;14.440;2022-12-01T04:27:36;99237.72;;;1.14;89.51
73016;BME280;61893;50.074;14.440;2022-12-01T04:30:05;99236.53;;;1.21;90.03
73016;BME280;61893;50.074;14.440;2022-12-01T04:32:50;99236.81;;;1.15;89.68
73016;BME280;61893;50.074;14.440;2022-12-01T04:35:41;99238.81;;;1.10;90.02
73016;BME280;61893;50.074;14.440;2022-12-01T04:38:21;99240.75;;;1.06;90.32
73016;BME280;61893;50.074;14.440;2022-12-01T04:40:47;99237.41;;;1.03;90.45
73016;BME280;61893;50.074;14.440;2022-12-01T04:43:13;99243.22;;;1.09;90.16
73016;BME280;61893;50.074;14.440;2022-12-01T04:45:38;99245.00;;;1.09;90.57
73016;BME280;61893;50.074;14.440;2022-12-01T04:48:04;99247.88;;;1.03;90.26
73016;BME280;61893;50.074;14.440;2022-12-01T04:50:30;99247.31;;;1.15;90.06
73016;BME280;61893;50.074;14.440;2022-12-01T04:52:55;99248.75;;;1.03;90.04
73016;BME280;61893;50.074;14.440;2022-12-01T04:55:21;99247.75;;;1.06;90.33
73016;BME280;61893;50.074;14.440;2022-12-01T04:57:47;99254.78;;;1.23;90.35
73016;BME280;61893;50.074;14.440;2022-12-01T05:00:13;99252.78;;;1.28;89.63
73016;BME280;61893;50.074;14.440;2022-12-01T05:02:59;99247.47;;;1.29;89.24
73016;BME280;61893;50.074;14.440;2022-12-01T05:05:25;99242.97;;;1.31;89.51
73016;BME280;61893;50.074;14.440;2022-12-01T05:07:50;99238.19;;;1.22;89.47
73016;BME280;61893;50.074;14.440;2022-12-01T05:10:16;99248.47;;;1.27;89.61
73016;BME280;61893;50.074;14.440;2022-12-01T05:12:44;99251.47;;;1.19;89.35
73016;BME280;61893;50.074;14.440;2022-12-01T05:15:13;99242.28;;;1.10;90.17
73016;BME280;61893;50.074;14.440;2022-12-01T05:17:41;99245.59;;;1.14;89.88
73016;BME280;61893;50.074;14.440;2022-12-01T05:20:13;99241.91;;;1.18;89.31
73016;BME280;61893;50.074;14.440;2022-12-01T05:23:01;99243.44;;;1.22;88.87
73016;BME280;61893;50.074;14.440;2022-12-01T05:25:27;99242.66;;;1.03;89.36
73016;BME280;61893;50.074;14.440;2022-12-01T05:27:52;99246.69;;;1.10;89.24
73016;BME280;61893;50.074;14.440;2022-12-01T05:30:21;99242.22;;;1.12;89.79
73016;BME280;61893;50.074;14.440;2022-12-01T05:32:47;99247.75;;;1.06;89.48
73016;BME280;61893;50.074;14.440;2022-12-01T05:35:13;99254.69;;;1.07;89.61
73016;BME280;61893;50.074;14.440;2022-12-01T05:37:40;99251.13;;;0.90;89.69
73016;BME280;61893;50.074;14.440;2022-12-01T05:40:06;99250.59;;;1.01;89.42
73016;BME280;61893;50.074;14.440;2022-12-01T05:42:47;99256.00;;;0.98;89.66
73016;BME280;61893;50.074;14.440;2022-12-01T05:45:14;99255.22;;;0.96;89.70
73016;BME280;61893;50.074;14.440;2022-12-01T05:47:44;99265.63;;;0.98;89.62
73016;BME280;61893;50.074;14.440;2022-12-01T05:50:10;99261.75;;;0.87;89.71
73016;BME280;61893;50.074;14.440;2022-12-01T05:52:36;99255.41;;;0.92;89.99
73016;BME280;61893;50.074;14.440;2022-12-01T05:55:03;99258.81;;;0.94;90.00
73016;BME280;61893;50.074;14.440;2022-12-01T05:57:30;99255.16;;;0.98;90.14
73016;BME280;61893;50.074;14.440;2022-12-01T05:59:56;99256.69;;;1.02;89.44
73016;BME280;61893;50.074;14.440;2022-12-01T06:02:24;99256.63;;;1.03;89.39
73016;BME280;61893;50.074;14.440;2022-12-01T06:04:52;99255.16;;;0.98;89.69
73016;BME280;61893;50.074;14.440;2022-12-01T06:07:39;99254.16;;;1.00;89.51
73016;BME280;61893;50.074;14.440;2022-12-01T06:10:09;99258.81;;;0.94;89.43
73016;BME280;61893;50.074;14.440;2022-12-01T06:12:35;99255.50;;;0.90;90.26
73016;BME280;61893;50.074;14.440;2022-12-01T06:15:02;99260.41;;;0.98;90.03
73016;BME280;61893;50.074;14.440;2022-12-01T06:17:28;99255.84;;;1.01;89.57
73016;BME280;61893;50.074;14.440;2022-12-01T06:20:06;99259.69;;;1.11;89.32
73016;BME280;61893;50.074;14.440;2022-12-01T06:22:32;99261.56;;;1.09;89.44
73016;BME280;61893;50.074;14.440;2022-12-01T06:25:01;99261.47;;;1.11;89.01
73016;BME280;61893;50.074;14.440;2022-12-01T06:27:27;99260.16;;;1.02;89.31
73016;BME280;61893;50.074;14.440;2022-12-01T06:29:59;99271.13;;;1.10;89.27
73016;BME280;61893;50.074;14.440;2022-12-01T06:32:39;99273.38;;;1.18;89.13
73016;BME280;61893;50.074;14.440;2022-12-01T06:35:05;99271.81;;;1.14;88.71
73016;BME280;61893;50.074;14.440;2022-12-01T06:37:34;99275.31;;;1.15;88.59
73016;BME280;61893;50.074;14.440;2022-12-01T06:40:00;99279.25;;;1.23;88.72
73016;BME280;61893;50.074;14.440;2022-12-01T06:42:35;99277.78;;;1.35;88.29
73016;BME280;61893;50.074;14.440;2022-12-01T06:45:35;99282.94;;;1.37;87.65
73016;BME280;61893;50.074;14.440;2022-12-01T06:48:01;99283.41;;;1.27;88.25
73016;BME280;61893;50.074;14.440;2022-12-01T06:50:29;99285.34;;;1.41;88.06
73016;BME280;61893;50.074;14.440;2022-12-01T06:52:55;99286.19;;;1.59;87.55
73016;BME280;61893;50.074;14.440;2022-12-01T06:55:25;99293.38;;;1.55;87.51
73016;BME280;61893;50.074;14.440;2022-12-01T06:58:48;99295.53;;;1.65;86.94
73016;BME280;61893;50.074;14.440;2022-12-01T07:02:16;99300.28;;;1.56;86.47
73016;BME280;61893;50.074;14.440;2022-12-01T07:04:46;99303.84;;;1.55;86.96
73016;BME280;61893;50.074;14.440;2022-12-01T07:07:34;99302.38;;;1.67;85.78
73016;BME280;61893;50.074;14.440;2022-12-01T07:10:19;99303.16;;;1.69;85.59
73016;BME280;61893;50.074;14.440;2022-12-01T07:13:01;99301.44;;;1.68;85.10
73016;BME280;61893;50.074;14.440;2022-12-01T07:16:21;99302.00;;;1.75;85.25
73016;BME280;61893;50.074;14.440;2022-12-01T07:19:39;99296.44;;;1.81;85.08
73016;BME280;61893;50.074;14.440;2022-12-01T07:22:23;99299.53;;;1.72;85.67
73016;BME280;61893;50.074;14.440;2022-12-01T07:25:32;99304.84;;;1.88;86.23
73016;BME280;61893;50.074;14.440;2022-12-01T07:28:36;99306.69;;;1.86;85.30
73016;BME280;61893;50.074;14.440;2022-12-01T07:31:55;99311.78;;;1.89;84.90
73016;BME280;61893;50.074;14.440;2022-12-01T07:35:01;99315.69;;;1.97;84.34
73016;BME280;61893;50.074;14.440;2022-12-01T07:38:01;99315.03;;;1.94;84.31
73016;BME280;61893;50.074;14.440;2022-12-01T07:41:05;99318.50;;;1.94;84.63
73016;BME280;61893;50.074;14.440;2022-12-01T07:43:53;99320.69;;;1.86;84.83
73016;BME280;61893;50.074;14.440;2022-12-01T07:46:23;99319.66;;;2.06;84.61
73016;BME280;61893;50.074;14.440;2022-12-01T07:48:57;99318.72;;;2.07;84.14
73016;BME280;61893;50.074;14.440;2022-12-01T07:51:39;99328.72;;;2.16;84.22
73016;BME280;61893;50.074;14.440;2022-12-01T07:54:05;99317.06;;;2.22;83.40
73016;BME280;61893;50.074;14.440;2022-12-01T07:56:33;99322.94;;;2.43;84.61
73016;BME280;61893;50.074;14.440;2022-12-01T07:59:11;99321.78;;;2.48;82.95
73016;BME280;61893;50.074;14.440;2022-12-01T08:03:02;99322.38;;;2.54;82.25
73016;BME280;61893;50.074;14.440;2022-12-01T08:06:23;99323.50;;;2.65;81.85
73016;BME280;61893;50.074;14.440;2022-12-01T08:09:13;99327.56;;;2.55;81.89
73016;BME280;61893;50.074;14.440;2022-12-01T08:11:55;99327.72;;;2.52;81.79
73016;BME280;61893;50.074;14.440;2022-12-01T08:15:25;99329.28;;;2.72;81.71
73016;BME280;61893;50.074;14.440;2022-12-01T08:18:52;99334.78;;;2.67;81.51
73016;BME280;61893;50.074;14.440;2022-12-01T08:21:53;99327.56;;;2.55;81.80
73016;BME280;61893;50.074;14.440;2022-12-01T08:24:34;99328.75;;;2.65;81.96
73016;BME280;61893;50.074;14.440;2022-12-01T08:27:59;99330.63;;;2.63;81.34
73016;BME280;61893;50.074;14.440;2022-12-01T08:31:33;99320.13;;;2.63;81.10
73016;BME280;61893;50.074;14.440;2022-12-01T08:34:06;99333.25;;;2.63;81.57
73016;BME280;61893;50.074;14.440;2022-12-01T08:36:33;99330.94;;;2.57;80.93
73016;BME280;61893;50.074;14.440;2022-12-01T08:39:26;99325.84;;;2.54;81.40
73016;BME280;61893;50.074;14.440;2022-12-01T08:42:39;99313.56;;;2.55;81.86
73016;BME280;61893;50.074;14.440;2022-12-01T08:45:23;99311.19;;;2.66;82.18
73016;BME280;61893;50.074;14.440;2022-12-01T08:47:53;99319.94;;;2.82;82.14
73016;BME280;61893;50.074;14.440;2022-12-01T08:50:25;99320.53;;;3.03;83.28
73016;BME280;61893;50.074;14.440;2022-12-01T08:53:00;99315.34;;;3.33;82.46
73016;BME280;61893;50.074;14.440;2022-12-01T08:55:27;99319.66;;;3.34;80.11
73016;BME280;61893;50.074;14.440;2022-12-01T08:58:01;99312.97;;;3.29;80.96
73016;BME280;61893;50.074;14.440;2022-12-01T09:08:33;99306.91;;;3.43;77.25
73016;BME280;61893;50.074;14.440;2022-12-01T09:11:04;99306.53;;;3.65;78.78
73016;BME280;61893;50.074;14.440;2022-12-01T09:13:31;99305.81;;;3.47;76.75
73016;BME280;61893;50.074;14.440;2022-12-01T09:16:02;99314.13;;;3.55;77.22
73016;BME280;61893;50.074;14.440;2022-12-01T09:18:34;99315.63;;;3.59;78.96
73016;BME280;61893;50.074;14.440;2022-12-01T09:21:31;99314.69;;;3.60;77.38
73016;BME280;61893;50.074;14.440;2022-12-01T09:24:20;99312.19;;;3.73;76.74
73016;BME280;61893;50.074;14.440;2022-12-01T09:27:04;99309.88;;;3.52;76.64
73016;BME280;61893;50.074;14.440;2022-12-01T09:29:48;99317.41;;;3.58;77.60
73016;BME280;61893;50.074;14.440;2022-12-01T09:32:22;99315.56;;;3.45;77.97
73016;BME280;61893;50.074;14.440;2022-12-01T09:35:26;99320.00;;;3.89;78.19
73016;BME280;61893;50.074;14.440;2022-12-01T09:38:34;99310.28;;;4.19;77.60
73016;BME280;61893;50.074;14.440;2022-12-01T09:47:34;99318.56;;;4.42;75.03
73016;BME280;61893;50.074;14.440;2022-12-01T09:50:46;99300.53;;;15.68;69.50
73016;BME280;61893;50.074;14.440;2022-12-01T09:53:16;99291.03;;;18.48;53.74
73016;BME280;61893;50.074;14.440;2022-12-01T09:55:42;99285.00;;;19.05;46.26
73016;BME280;61893;50.074;14.440;2022-12-01T09:58:17;99295.88;;;14.16;40.71
73016;BME280;61893;50.074;14.440;2022-12-01T10:01:18;99303.03;;;10.27;49.07
73016;BME280;61893;50.074;14.440;2022-12-01T10:03:54;99305.88;;;8.40;54.73
73016;BME280;61893;50.074;14.440;2022-12-01T10:13:21;99316.72;;;5.54;65.70
73016;BME280;61893;50.074;14.440;2022-12-01T10:20:15;99296.50;;;5.40;68.19
73016;BME280;61893;50.074;14.440;2022-12-01T10:23:09;99300.66;;;5.57;69.66
73016;BME280;61893;50.074;14.440;2022-12-01T10:26:23;99297.72;;;5.61;67.99
73016;BME280;61893;50.074;14.440;2022-12-01T10:35:18;99298.72;;;4.92;69.74
73016;BME280;61893;50.074;14.440;2022-12-01T10:40:43;99298.19;;;5.14;71.79
73016;BME280;61893;50.074;14.440;2022-12-01T10:43:55;99290.25;;;5.28;71.66
73016;BME280;61893;50.074;14.440;2022-12-01T10:46:53;99295.38;;;5.44;72.17
73016;BME280;61893;50.074;14.440;2022-12-01T10:49:37;99287.81;;;5.65;72.30
73016;BME280;61893;50.074;14.440;2022-12-01T10:52:03;99285.25;;;5.51;68.39
73016;BME280;61893;50.074;14.440;2022-12-01T10:54:43;99289.50;;;5.66;68.89
73016;BME280;61893;50.074;14.440;2022-12-01T10:57:14;99275.50;;;5.11;67.67
73016;BME280;61893;50.074;14.440;2022-12-01T10:59:51;99274.00;;;5.34;69.53
73016;BME280;61893;50.074;14.440;2022-12-01T11:02:34;99269.69;;;5.46;69.09
73016;BME280;61893;50.074;14.440;2022-12-01T11:05:03;99269.19;;;5.41;69.22
73016;BME280;61893;50.074;14.440;2022-12-01T11:07:45;99274.00;;;4.80;68.84
73016;BME280;61893;50.074;14.440;2022-12-01T11:10:33;99277.69;;;5.05;72.34
73016;BME280;61893;50.074;14.440;2022-12-01T11:13:23;99277.09;;;4.87;68.03
73016;BME280;61893;50.074;14.440;2022-12-01T11:16:02;99271.84;;;4.87;71.68
73016;BME280;61893;50.074;14.440;2022-12-01T11:18:32;99271.03;;;4.43;69.71
73016;BME280;61893;50.074;14.440;2022-12-01T11:21:26;99275.25;;;4.60;71.89
73016;BME280;61893;50.074;14.440;2022-12-01T11:23:54;99274.38;;;4.74;69.36
73016;BME280;61893;50.074;14.440;2022-12-01T11:26:52;99265.66;;;4.59;70.06
73016;BME280;61893;50.074;14.440;2022-12-01T11:29:38;99265.13;;;4.40;70.43
73016;BME280;61893;50.074;14.440;2022-12-01T11:32:23;99267.38;;;4.17;72.31
73016;BME280;61893;50.074;14.440;2022-12-01T11:35:17;99259.66;;;3.86;70.97
73016;BME280;61893;50.074;14.440;2022-12-01T11:38:47;99257.97;;;3.99;71.22
73016;BME280;61893;50.074;14.440;2022-12-01T11:42:20;99252.78;;;4.12;71.17
73016;BME280;61893;50.074;14.440;2022-12-01T11:45:54;99256.19;;;4.14;70.98
73016;BME280;61893;50.074;14.440;2022-12-01T11:49:39;99253.44;;;4.58;71.01
73016;BME280;61893;50.074;14.440;2022-12-01T11:52:49;99251.63;;;4.73;70.74
73016;BME280;61893;50.074;14.440;2022-12-01T11:56:49;99250.41;;;4.64;68.33
73016;BME280;61893;50.074;14.440;2022-12-01T12:00:56;99256.81;;;4.46;69.09
73016;BME280;61893;50.074;14.440;2022-12-01T12:09:52;99259.84;;;4.25;71.90
73016;BME280;61893;50.074;14.440;2022-12-01T12:21:31;99249.50;;;4.22;72.24
73016;BME280;61893;50.074;14.440;2022-12-01T12:24:27;99234.09;;;4.16;72.80
73016;BME280;61893;50.074;14.440;2022-12-01T12:27:12;99240.13;;;4.04;71.90
73016;BME280;61893;50.074;14.440;2022-12-01T12:30:22;99231.69;;;4.40;74.33
73016;BME280;61893;50.074;14.440;2022-12-01T12:45:56;99236.63;;;4.32;74.39
73016;BME280;61893;50.074;14.440;2022-12-01T12:49:09;99241.72;;;4.35;73.97
73016;BME280;61893;50.074;14.440;2022-12-01T12:52:25;99232.28;;;4.31;75.45
73016;BME280;61893;50.074;14.440;2022-12-01T12:55:58;99236.44;;;4.35;74.37
73016;BME280;61893;50.074;14.440;2022-12-01T12:58:55;99237.47;;;4.47;75.88
73016;BME280;61893;50.074;14.440;2022-12-01T13:05:17;99232.28;;;4.17;76.18
73016;BME280;61893;50.074;14.440;2022-12-01T13:08:35;99238.41;;;4.17;76.56
73016;BME280;61893;50.074;14.440;2022-12-01T13:16:33;99231.72;;;3.83;76.91
73016;BME280;61893;50.074;14.440;2022-12-01T13:19:29;99220.78;;;3.60;77.98
73016;BME280;61893;50.074;14.440;2022-12-01T13:22:00;99228.06;;;3.86;79.83
73016;BME280;61893;50.074;14.440;2022-12-01T13:25:46;99225.41;;;3.71;77.81
73016;BME280;61893;50.074;14.440;2022-12-01T13:29:56;99219.28;;;3.56;78.35
73016;BME280;61893;50.074;14.440;2022-12-01T13:37:50;99227.47;;;3.80;80.30
73016;BME280;61893;50.074;14.440;2022-12-01T13:42:06;99228.88;;;3.57;78.83
73016;BME280;61893;50.074;14.440;2022-12-01T13:45:37;99240.97;;;3.46;79.17
73016;BME280;61893;50.074;14.440;2022-12-01T13:48:54;99228.63;;;3.32;81.60
73016;BME280;61893;50.074;14.440;2022-12-01T13:56:44;99238.63;;;3.41;81.40
73016;BME280;61893;50.074;14.440;2022-12-01T14:08:02;99239.88;;;3.50;80.56
73016;BME280;61893;50.074;14.440;2022-12-01T14:11:04;99232.81;;;3.50;79.41
73016;BME280;61893;50.074;14.440;2022-12-01T14:14:31;99232.59;;;3.39;80.73
73016;BME280;61893;50.074;14.440;2022-12-01T14:16:52;99228.47;;;3.35;80.85
73016;BME280;61893;50.074;14.440;2022-12-01T14:20:21;99236.03;;;3.25;80.28
73016;BME280;61893;50.074;14.440;2022-12-01T14:27:40;99231.81;;;3.37;80.11
73016;BME280;61893;50.074;14.440;2022-12-01T14:35:12;99223.44;;;3.75;80.40
73016;BME280;61893;50.074;14.440;2022-12-01T14:39:16;99223.69;;;3.42;80.35
73016;BME280;61893;50.074;14.440;2022-12-01T14:42:49;99225.97;;;3.32;81.17
73016;BME280;61893;50.074;14.440;2022-12-01T14:46:25;99224.31;;;3.31;81.94
73016;BME280;61893;50.074;14.440;2022-12-01T14:51:45;99236.06;;;3.09;82.73
73016;BME280;61893;50.074;14.440;2022-12-01T14:54:37;99233.34;;;3.11;81.59
73016;BME280;61893;50.074;14.440;2022-12-01T14:57:33;99235.13;;;3.10;83.29
73016;BME280;61893;50.074;14.440;2022-12-01T15:00:07;99240.41;;;2.94;82.99
73016;BME280;61893;50.074;14.440;2022-12-01T15:02:46;99236.31;;;3.05;83.58
73016;BME280;61893;50.074;14.440;2022-12-01T15:05:20;99236.06;;;3.09;83.09
73016;BME280;61893;50.074;14.440;2022-12-01T15:08:23;99231.38;;;3.14;82.51
73016;BME280;61893;50.074;14.440;2022-12-01T15:10:55;99232.19;;;3.01;82.39
73016;BME280;61893;50.074;14.440;2022-12-01T15:17:27;99229.63;;;2.99;82.78
73016;BME280;61893;50.074;14.440;2022-12-01T15:21:33;99232.78;;;2.90;83.28
73016;BME280;61893;50.074;14.440;2022-12-01T15:37:22;99236.13;;;2.62;84.07
73016;BME280;61893;50.074;14.440;2022-12-01T15:40:04;99235.50;;;2.88;84.02
73016;BME280;61893;50.074;14.440;2022-12-01T15:42:36;99235.44;;;2.74;82.88
73016;BME280;61893;50.074;14.440;2022-12-01T15:47:56;99242.13;;;2.80;83.99
73016;BME280;61893;50.074;14.440;2022-12-01T15:55:56;99236.34;;;2.57;83.29
73016;BME280;61893;50.074;14.440;2022-12-01T16:20:17;99240.28;;;2.50;83.68
73016;BME280;61893;50.074;14.440;2022-12-01T16:26:52;99237.47;;;2.53;83.43
73016;BME280;61893;50.074;14.440;2022-12-01T16:29:33;99229.34;;;2.58;84.29
73016;BME280;61893;50.074;14.440;2022-12-01T16:36:22;99226.03;;;2.38;84.10
73016;BME280;61893;50.074;14.440;2022-12-01T16:58:06;99232.91;;;2.57;84.55
73016;BME280;61893;50.074;14.440;2022-12-01T17:00:45;99238.50;;;2.51;84.99
73016;BME280;61893;50.074;14.440;2022-12-01T17:06:16;99233.66;;;2.43;85.12
73016;BME280;61893;50.074;14.440;2022-12-01T17:09:12;99235.19;;;2.47;85.55
73016;BME280;61893;50.074;14.440;2022-12-01T17:12:16;99236.09;;;2.46;83.73
73016;BME280;61893;50.074;14.440;2022-12-01T18:05:45;99248.69;;;1.57;86.98
73016;BME280;61893;50.074;14.440;2022-12-01T18:08:42;99263.97;;;1.66;87.03
73016;BME280;61893;50.074;14.440;2022-12-01T18:11:44;99269.13;;;1.68;86.78
73016;BME280;61893;50.074;14.440;2022-12-01T18:41:46;99276.38;;;1.28;83.91
73016;BME280;61893;50.074;14.440;2022-12-01T18:44:12;99274.91;;;1.40;81.55
73016;BME280;61893;50.074;14.440;2022-12-01T18:46:40;99276.22;;;1.48;81.13
73016;BME280;61893;50.074;14.440;2022-12-01T18:49:09;99266.00;;;1.44;80.07
73016;BME280;61893;50.074;14.440;2022-12-01T18:51:42;99264.69;;;1.35;80.86
73016;BME280;61893;50.074;14.440;2022-12-01T18:54:37;99270.22;;;1.29;81.28
73016;BME280;61893;50.074;14.440;2022-12-01T18:57:26;99267.56;;;1.11;81.31
73016;BME280;61893;50.074;14.440;2022-12-01T18:59:56;99265.09;;;1.08;81.57
73016;BME280;61893;50.074;14.440;2022-12-01T19:02:22;99264.91;;;0.94;81.89
73016;BME280;61893;50.074;14.440;2022-12-01T19:11:12;99271.03;;;0.76;81.81
73016;BME280;61893;50.074;14.440;2022-12-01T19:13:39;99276.28;;;0.57;82.05
73016;BME280;61893;50.074;14.440;2022-12-01T19:16:08;99267.22;;;0.64;82.91
73016;BME280;61893;50.074;14.440;2022-12-01T19:19:25;99266.53;;;0.60;83.62
73016;BME280;61893;50.074;14.440;2022-12-01T19:22:03;99265.31;;;0.49;82.52